Lake Levels
Share |
Lake Levels
Lakes Rivers Marinas Marinas Houses Events Maps
Search 1,638 Lakes:
Lake Store

Lake Levels

LakeLevels.info is a national information and alert service for lake water levels in the United States. With a FREE member account you can receive water level alerts by email when the water level reaches your desired alert level.


We currently offer Lake Level information and alerts for 63 lakes and serve 8,200 members with 20,875 alerts.


Sign-up for a Lake Level Alert


Filter By State:
Lake Name Current
Level
Full Pool +/-
Full Pool
Reading
Date - Time
Amistad (TX) 1,078.46 1,117.00 -38.54 4/20/2014  7:15:00 PM
Amon Carter (TX) 911.11 920.00 -8.89 4/20/2014  7:00:00 PM
Aquilla (TX) 532.95 537.50 -4.55 4/20/2014  4:30:00 PM
Athens (TX) 440.09 ??? 4/20/2014  3:30:00 PM
Austin (TX) 492.15 492.80 -0.65 4/20/2014  10:15:00 AM
Bardwell (TX) 417.73 421.00 -3.27 4/20/2014  11:30:00 AM
Belton (TX) 584.13 ??? 4/20/2014  3:00:00 PM
Bob Sandlin (TX) 335.68 337.50 -1.82 4/20/2014  10:10:00 AM
Brownwood (TX) 1,413.62 1,424.50 -10.88 4/20/2014  7:30:00 PM
Buchanan (TX) 988.52 1,018.00 -29.48 4/20/2014  10:15:00 AM
Caddo (LA TX) 169.75 168.50 1.25 4/20/2014  7:00:00 AM
Canyon (TX) 900.24 909.00 -8.76 4/20/2014  12:15:00 AM
Cedar Creek (TX) 317.98 ??? 4/20/2014  7:45:00 PM
Champion Creek (TX) 2,036.27 2,083.00 -46.73 4/20/2014  8:50:00 AM
Choke Canyon (TX) 196.34 220.50 -24.16 4/20/2014  7:30:00 AM
Coleto Creek (TX) 94.07 98.28 -4.21 4/20/2014  5:00:00 PM
Colorado City (TX) 2,049.02 2,070.20 -21.18 4/20/2014  8:50:00 AM
Conroe (TX) 200.49 201.00 -0.51 4/20/2014  3:45:00 PM
Corpus Christi (TX) 91.23 94.00 -2.77 4/20/2014  8:32:00 AM
Eagle Mountain (TX) 642.06 649.00 -6.94 4/20/2014  6:45:00 PM
Falcon (TX) 276.31 301.20 -24.89 4/20/2014  10:15:00 AM
Fork (TX) 399.36 ??? 4/20/2014  12:30:00 PM
Georgetown (TX) 776.56 791.00 -14.44 4/20/2014  12:00:00 PM
Granbury (TX) 682.55 ??? 4/20/2014  7:30:00 PM
Grapevine (TX) 524.96 535.00 -10.04 4/20/2014  6:45:00 PM
Houston (TX) 42.05 41.70 0.35 4/20/2014  7:30:00 PM
Inks (TX) 887.16 886.90 0.26 4/20/2014  12:00:00 AM
Jacksonville (TX) 421.67 422.00 -0.33 4/20/2014  10:10:00 AM
Jim Chapman (TX) 429.18 440.00 -10.82 4/20/2014  10:10:00 AM
Joe Pool (TX) 520.60 522.00 -1.40 4/20/2014  6:00:00 PM
Lake O' the Pines (TX) 229.06 228.50 0.56 4/20/2014  10:10:00 AM
Lavon (TX) 480.25 492.00 -11.75 4/20/2014  6:00:00 PM
Lewisville (TX) 514.34 522.00 -7.66 4/20/2014  7:30:00 PM
Livingston (TX) 131.14 131.00 0.14 4/20/2014  7:15:00 PM
Lyndon B. Johnson (TX) 824.62 825.00 -0.38 4/20/2014  10:15:00 AM
MacKenzie (TX) 3,001.89 3,100.00 -98.11 4/20/2014  6:30:00 PM
Marble Falls (TX) 736.45 737.00 -0.55 4/20/2014  10:15:00 AM
Martin Creek (TX) 305.91 306.00 -0.09 4/20/2014  4:30:00 PM
Medina (TX) 973.42 ??? 4/20/2014  7:00:00 PM
Meredith (TX) 2,847.08 ??? 4/20/2014  7:30:00 PM
Mineral Wells (TX) 857.04 ??? 4/21/2014  12:30:00 AM
Moss Creek (TX) 2,331.39 2,337.00 -5.61 4/20/2014  7:45:00 PM
Murvaul (TX) 265.45 265.50 -0.05 4/20/2014  10:10:00 AM
Nacogdoches (TX) 278.64 279.00 -0.36 4/20/2014  10:10:00 AM
Natural Dam Salt (TX) 2,447.33 2,457.00 -9.67 4/20/2014  8:50:00 AM
O.H. Ivie (TX) 1,504.09 1,551.50 -47.41 4/20/2014  5:15:00 PM
Palestine (TX) 344.90 345.00 -0.10 4/20/2014  10:10:00 AM
Pat Mayse (TX) 445.60 451.00 -5.40 4/20/2014  10:10:00 AM
Possum Kingdom (TX) 985.66 1,000.00 -14.34 4/20/2014  10:00:00 AM
Ray Hubbard (TX) 428.01 435.50 -7.49 4/20/2014  7:30:00 PM
Ray Roberts (TX) 624.37 632.50 -8.13 4/20/2014  7:15:00 PM
Red Bluff (TX) 2,813.74 2,827.13 -13.39 4/20/2014  8:50:00 AM
Richland Chambers (TX) 307.31 315.00 -7.69 4/20/2014  10:00:00 AM
Sam Rayburn (TX) 162.32 164.40 -2.08 4/20/2014  6:00:00 PM
Somerville (TX) 235.46 238.00 -2.54 4/20/2014  7:00:00 PM
Tawakoni (TX) 427.56 437.50 -9.94 4/20/2014  7:30:00 PM
Texana (TX) 40.61 44.00 -3.39 4/20/2014  7:00:00 PM
Toledo Bend (TX LA) 170.53 172.00 -1.47 4/20/2014  7:30:00 PM
Travis (TX) 626.66 681.00 -54.34 4/20/2014  7:00:00 PM
Tyler (TX) 375.49 375.50 -0.01 4/20/2014  10:10:00 AM
Whitney (TX) 520.66 ??? 4/20/2014  7:15:00 PM
Worth (TX) 590.52 594.00 -3.48 4/20/2014  6:00:00 PM
Wright Patman (TX) 226.49 220.60 5.89 4/20/2014  10:10:00 AM

Current Daily Streamflow Conditions
High
90th percentile
75th - 89th percentile
25th - 74th percentile
10th - 24th percentile
10th percentile
Low
Not ranked

The colored dots on this map depict streamflow conditions as a percentile, which is computed from the period of record for the current day of the year. Only stations with at least 30 years of record are used. The gray circles indicate other stations that were not ranked in percentiles either because they have fewer than 30 years of record or because they report parameters other than streamflow. Some stations, for example, measure stage only.
TX Daily Streamflow Conditions

U.S. Drought Monitor